sensor_id;sensor_type;location;lat;lon;timestamp;temperature;humidity
13707;DHT22;6925;47.816;13.072;2023-08-01T00:01:37;21.50;65.30
13707;DHT22;6925;47.816;13.072;2023-08-01T00:04:04;21.50;65.80
13707;DHT22;6925;47.816;13.072;2023-08-01T00:06:31;21.60;66.10
13707;DHT22;6925;47.816;13.072;2023-08-01T00:08:58;21.60;65.40
13707;DHT22;6925;47.816;13.072;2023-08-01T00:11:25;21.60;65.20
13707;DHT22;6925;47.816;13.072;2023-08-01T00:13:53;21.50;65.60
13707;DHT22;6925;47.816;13.072;2023-08-01T00:19:42;21.60;65.90
13707;DHT22;6925;47.816;13.072;2023-08-01T00:22:09;21.50;65.40
13707;DHT22;6925;47.816;13.072;2023-08-01T00:24:37;21.50;65.50
13707;DHT22;6925;47.816;13.072;2023-08-01T00:27:04;21.40;66.60
13707;DHT22;6925;47.816;13.072;2023-08-01T00:29:32;21.40;66.00
13707;DHT22;6925;47.816;13.072;2023-08-01T00:31:59;21.40;67.00
13707;DHT22;6925;47.816;13.072;2023-08-01T00:34:26;21.40;67.10
13707;DHT22;6925;47.816;13.072;2023-08-01T00:36:53;21.40;67.80
13707;DHT22;6925;47.816;13.072;2023-08-01T00:39:20;21.40;67.70
13707;DHT22;6925;47.816;13.072;2023-08-01T00:41:47;21.50;69.50
13707;DHT22;6925;47.816;13.072;2023-08-01T00:47:18;21.50;68.60
13707;DHT22;6925;47.816;13.072;2023-08-01T00:49:46;21.40;68.10
13707;DHT22;6925;47.816;13.072;2023-08-01T00:52:13;21.40;68.20
13707;DHT22;6925;47.816;13.072;2023-08-01T00:54:40;21.30;68.60
13707;DHT22;6925;47.816;13.072;2023-08-01T00:57:08;21.30;68.40
13707;DHT22;6925;47.816;13.072;2023-08-01T00:59:36;21.30;68.40
13707;DHT22;6925;47.816;13.072;2023-08-01T01:02:03;21.30;69.20
13707;DHT22;6925;47.816;13.072;2023-08-01T01:04:31;21.20;69.30
13707;DHT22;6925;47.816;13.072;2023-08-01T01:07:02;21.20;69.10
13707;DHT22;6925;47.816;13.072;2023-08-01T01:09:30;21.20;69.90
13707;DHT22;6925;47.816;13.072;2023-08-01T01:11:58;21.30;70.10
13707;DHT22;6925;47.816;13.072;2023-08-01T01:14:26;21.20;69.80
13707;DHT22;6925;47.816;13.072;2023-08-01T01:16:53;21.20;70.00
13707;DHT22;6925;47.816;13.072;2023-08-01T01:19:20;21.20;70.40
13707;DHT22;6925;47.816;13.072;2023-08-01T01:22:04;21.20;70.50
13707;DHT22;6925;47.816;13.072;2023-08-01T01:24:32;21.20;70.50
13707;DHT22;6925;47.816;13.072;2023-08-01T01:27:01;21.10;69.90
13707;DHT22;6925;47.816;13.072;2023-08-01T01:29:30;21.00;70.10
13707;DHT22;6925;47.816;13.072;2023-08-01T01:31:57;21.00;69.50
13707;DHT22;6925;47.816;13.072;2023-08-01T01:34:26;20.80;69.50
13707;DHT22;6925;47.816;13.072;2023-08-01T01:36:55;20.80;70.40
13707;DHT22;6925;47.816;13.072;2023-08-01T01:39:22;20.70;70.60
13707;DHT22;6925;47.816;13.072;2023-08-01T01:41:49;20.70;71.00
13707;DHT22;6925;47.816;13.072;2023-08-01T01:44:16;20.70;70.60
13707;DHT22;6925;47.816;13.072;2023-08-01T01:46:43;20.60;70.00
13707;DHT22;6925;47.816;13.072;2023-08-01T01:49:10;20.60;69.10
13707;DHT22;6925;47.816;13.072;2023-08-01T01:51:36;20.60;69.40
13707;DHT22;6925;47.816;13.072;2023-08-01T01:54:05;20.60;70.40
13707;DHT22;6925;47.816;13.072;2023-08-01T01:56:32;20.70;70.80
13707;DHT22;6925;47.816;13.072;2023-08-01T01:59:01;20.70;71.00
13707;DHT22;6925;47.816;13.072;2023-08-01T02:01:28;20.80;70.30
13707;DHT22;6925;47.816;13.072;2023-08-01T02:03:55;20.80;71.00
13707;DHT22;6925;47.816;13.072;2023-08-01T02:06:22;20.80;70.20
13707;DHT22;6925;47.816;13.072;2023-08-01T02:08:49;20.80;70.80
13707;DHT22;6925;47.816;13.072;2023-08-01T02:11:17;20.90;70.60
13707;DHT22;6925;47.816;13.072;2023-08-01T02:13:44;20.90;70.40
13707;DHT22;6925;47.816;13.072;2023-08-01T02:16:11;20.90;69.80
13707;DHT22;6925;47.816;13.072;2023-08-01T02:18:38;20.90;70.20
13707;DHT22;6925;47.816;13.072;2023-08-01T02:21:05;20.90;70.50
13707;DHT22;6925;47.816;13.072;2023-08-01T02:23:32;20.90;70.90
13707;DHT22;6925;47.816;13.072;2023-08-01T02:26:02;20.90;71.00
13707;DHT22;6925;47.816;13.072;2023-08-01T02:28:30;21.00;71.60
13707;DHT22;6925;47.816;13.072;2023-08-01T02:30:57;21.00;72.20
13707;DHT22;6925;47.816;13.072;2023-08-01T02:33:24;21.00;71.20
13707;DHT22;6925;47.816;13.072;2023-08-01T02:35:51;21.00;72.20
13707;DHT22;6925;47.816;13.072;2023-08-01T02:38:17;20.90;72.50
13707;DHT22;6925;47.816;13.072;2023-08-01T02:40:44;20.80;71.40
13707;DHT22;6925;47.816;13.072;2023-08-01T02:43:11;20.80;72.10
13707;DHT22;6925;47.816;13.072;2023-08-01T02:45:41;20.80;73.30
13707;DHT22;6925;47.816;13.072;2023-08-01T02:48:08;20.80;73.00
13707;DHT22;6925;47.816;13.072;2023-08-01T02:50:35;20.80;72.60
13707;DHT22;6925;47.816;13.072;2023-08-01T02:53:04;20.80;73.90
13707;DHT22;6925;47.816;13.072;2023-08-01T02:55:31;20.80;74.70
13707;DHT22;6925;47.816;13.072;2023-08-01T02:57:58;20.80;74.30
13707;DHT22;6925;47.816;13.072;2023-08-01T03:00:25;20.80;73.70
13707;DHT22;6925;47.816;13.072;2023-08-01T03:02:53;20.80;73.30
13707;DHT22;6925;47.816;13.072;2023-08-01T03:05:20;20.70;73.20
13707;DHT22;6925;47.816;13.072;2023-08-01T03:07:47;20.60;73.90
13707;DHT22;6925;47.816;13.072;2023-08-01T03:10:14;20.70;73.40
13707;DHT22;6925;47.816;13.072;2023-08-01T03:12:41;20.50;73.70
13707;DHT22;6925;47.816;13.072;2023-08-01T03:15:08;20.50;74.40
13707;DHT22;6925;47.816;13.072;2023-08-01T03:17:35;20.50;74.70
13707;DHT22;6925;47.816;13.072;2023-08-01T03:20:04;20.50;75.00
13707;DHT22;6925;47.816;13.072;2023-08-01T03:22:31;20.50;75.40
13707;DHT22;6925;47.816;13.072;2023-08-01T03:24:58;20.50;75.50
13707;DHT22;6925;47.816;13.072;2023-08-01T03:27:25;20.50;76.30
13707;DHT22;6925;47.816;13.072;2023-08-01T03:29:52;20.50;76.10
13707;DHT22;6925;47.816;13.072;2023-08-01T03:32:19;20.40;76.90
13707;DHT22;6925;47.816;13.072;2023-08-01T03:34:46;20.50;78.00
13707;DHT22;6925;47.816;13.072;2023-08-01T03:37:15;20.50;77.00
13707;DHT22;6925;47.816;13.072;2023-08-01T03:39:43;20.50;78.30
13707;DHT22;6925;47.816;13.072;2023-08-01T03:42:11;20.50;78.00
13707;DHT22;6925;47.816;13.072;2023-08-01T03:44:37;20.50;78.40
13707;DHT22;6925;47.816;13.072;2023-08-01T03:47:05;20.40;77.30
13707;DHT22;6925;47.816;13.072;2023-08-01T03:49:32;20.30;77.20
13707;DHT22;6925;47.816;13.072;2023-08-01T03:51:59;20.20;78.20
13707;DHT22;6925;47.816;13.072;2023-08-01T03:54:27;20.10;79.00
13707;DHT22;6925;47.816;13.072;2023-08-01T03:56:54;20.00;79.70
13707;DHT22;6925;47.816;13.072;2023-08-01T03:59:22;20.10;79.70
13707;DHT22;6925;47.816;13.072;2023-08-01T04:01:49;20.10;78.90
13707;DHT22;6925;47.816;13.072;2023-08-01T04:04:17;20.10;78.50
13707;DHT22;6925;47.816;13.072;2023-08-01T04:06:45;20.10;78.30
13707;DHT22;6925;47.816;13.072;2023-08-01T04:09:12;20.10;79.10
13707;DHT22;6925;47.816;13.072;2023-08-01T04:11:41;20.10;79.60
13707;DHT22;6925;47.816;13.072;2023-08-01T04:14:08;20.00;79.50
13707;DHT22;6925;47.816;13.072;2023-08-01T04:16:34;19.90;79.70
13707;DHT22;6925;47.816;13.072;2023-08-01T04:19:02;19.90;80.30
13707;DHT22;6925;47.816;13.072;2023-08-01T04:21:29;20.00;80.20
13707;DHT22;6925;47.816;13.072;2023-08-01T04:23:56;19.90;80.00
13707;DHT22;6925;47.816;13.072;2023-08-01T04:26:23;19.80;80.20
13707;DHT22;6925;47.816;13.072;2023-08-01T04:28:51;19.80;81.00
13707;DHT22;6925;47.816;13.072;2023-08-01T04:31:18;19.80;81.20
13707;DHT22;6925;47.816;13.072;2023-08-01T04:33:45;19.80;81.20
13707;DHT22;6925;47.816;13.072;2023-08-01T04:36:12;19.80;81.40
13707;DHT22;6925;47.816;13.072;2023-08-01T04:38:39;19.80;81.00
13707;DHT22;6925;47.816;13.072;2023-08-01T04:41:06;19.80;79.90
13707;DHT22;6925;47.816;13.072;2023-08-01T04:43:33;19.80;80.40
13707;DHT22;6925;47.816;13.072;2023-08-01T04:46:02;19.80;80.10
13707;DHT22;6925;47.816;13.072;2023-08-01T04:48:29;19.80;80.20
13707;DHT22;6925;47.816;13.072;2023-08-01T04:50:56;19.90;79.90
13707;DHT22;6925;47.816;13.072;2023-08-01T04:53:25;19.90;81.30
13707;DHT22;6925;47.816;13.072;2023-08-01T04:55:52;19.90;81.40
13707;DHT22;6925;47.816;13.072;2023-08-01T04:58:19;20.00;81.80
13707;DHT22;6925;47.816;13.072;2023-08-01T05:00:46;19.90;81.30
13707;DHT22;6925;47.816;13.072;2023-08-01T05:03:14;19.90;81.90
13707;DHT22;6925;47.816;13.072;2023-08-01T05:05:42;19.90;82.20
13707;DHT22;6925;47.816;13.072;2023-08-01T05:08:09;19.90;82.70
13707;DHT22;6925;47.816;13.072;2023-08-01T05:10:36;19.90;83.10
13707;DHT22;6925;47.816;13.072;2023-08-01T05:13:03;20.00;83.20
13707;DHT22;6925;47.816;13.072;2023-08-01T05:15:30;20.00;83.10
13707;DHT22;6925;47.816;13.072;2023-08-01T05:17:57;20.10;83.40
13707;DHT22;6925;47.816;13.072;2023-08-01T05:20:25;20.10;83.10
13707;DHT22;6925;47.816;13.072;2023-08-01T05:22:56;20.10;82.60
13707;DHT22;6925;47.816;13.072;2023-08-01T05:25:23;20.10;83.10
13707;DHT22;6925;47.816;13.072;2023-08-01T05:27:50;20.10;83.20
13707;DHT22;6925;47.816;13.072;2023-08-01T05:30:17;20.10;83.20
13707;DHT22;6925;47.816;13.072;2023-08-01T05:32:44;20.10;82.60
13707;DHT22;6925;47.816;13.072;2023-08-01T05:35:12;20.10;83.20
13707;DHT22;6925;47.816;13.072;2023-08-01T05:37:41;20.00;83.20
13707;DHT22;6925;47.816;13.072;2023-08-01T05:40:09;19.90;83.30
13707;DHT22;6925;47.816;13.072;2023-08-01T05:42:36;19.90;83.70
13707;DHT22;6925;47.816;13.072;2023-08-01T05:45:03;20.00;84.30
13707;DHT22;6925;47.816;13.072;2023-08-01T05:47:31;20.00;83.80
13707;DHT22;6925;47.816;13.072;2023-08-01T05:49:58;20.00;83.80
13707;DHT22;6925;47.816;13.072;2023-08-01T05:52:24;20.00;84.40
13707;DHT22;6925;47.816;13.072;2023-08-01T05:54:53;19.90;84.30
13707;DHT22;6925;47.816;13.072;2023-08-01T05:57:20;19.90;84.00
13707;DHT22;6925;47.816;13.072;2023-08-01T05:59:47;19.90;83.60
13707;DHT22;6925;47.816;13.072;2023-08-01T06:02:14;20.00;84.80
13707;DHT22;6925;47.816;13.072;2023-08-01T06:04:41;19.90;84.00
13707;DHT22;6925;47.816;13.072;2023-08-01T06:07:08;19.90;83.10
13707;DHT22;6925;47.816;13.072;2023-08-01T06:09:35;19.90;82.90
13707;DHT22;6925;47.816;13.072;2023-08-01T06:12:03;19.90;84.70
13707;DHT22;6925;47.816;13.072;2023-08-01T06:14:31;20.00;85.40
13707;DHT22;6925;47.816;13.072;2023-08-01T06:16:57;20.00;84.90
13707;DHT22;6925;47.816;13.072;2023-08-01T06:19:24;20.00;85.30
13707;DHT22;6925;47.816;13.072;2023-08-01T06:21:51;20.00;86.10
13707;DHT22;6925;47.816;13.072;2023-08-01T06:24:18;20.10;86.70
13707;DHT22;6925;47.816;13.072;2023-08-01T06:26:45;20.10;85.80
13707;DHT22;6925;47.816;13.072;2023-08-01T06:29:14;20.10;86.80
13707;DHT22;6925;47.816;13.072;2023-08-01T06:31:41;20.10;86.20
13707;DHT22;6925;47.816;13.072;2023-08-01T06:34:09;20.10;86.00
13707;DHT22;6925;47.816;13.072;2023-08-01T06:36:36;20.10;86.00
13707;DHT22;6925;47.816;13.072;2023-08-01T06:39:03;20.10;85.70
13707;DHT22;6925;47.816;13.072;2023-08-01T06:41:30;20.00;85.10
13707;DHT22;6925;47.816;13.072;2023-08-01T06:43:57;19.90;85.20
13707;DHT22;6925;47.816;13.072;2023-08-01T06:46:26;19.90;85.60
13707;DHT22;6925;47.816;13.072;2023-08-01T06:48:53;19.90;85.80
13707;DHT22;6925;47.816;13.072;2023-08-01T06:51:20;20.00;86.40
13707;DHT22;6925;47.816;13.072;2023-08-01T06:53:47;20.00;86.20
13707;DHT22;6925;47.816;13.072;2023-08-01T06:56:14;20.00;86.40
13707;DHT22;6925;47.816;13.072;2023-08-01T06:58:40;20.00;86.90
13707;DHT22;6925;47.816;13.072;2023-08-01T07:01:08;20.00;87.10
13707;DHT22;6925;47.816;13.072;2023-08-01T07:03:36;20.10;87.30
13707;DHT22;6925;47.816;13.072;2023-08-01T07:06:03;20.10;87.20
13707;DHT22;6925;47.816;13.072;2023-08-01T07:08:30;20.10;86.60
13707;DHT22;6925;47.816;13.072;2023-08-01T07:10:58;20.10;84.90
13707;DHT22;6925;47.816;13.072;2023-08-01T07:13:25;20.00;84.80
13707;DHT22;6925;47.816;13.072;2023-08-01T07:15:52;19.90;84.80
13707;DHT22;6925;47.816;13.072;2023-08-01T07:18:19;19.90;86.70
13707;DHT22;6925;47.816;13.072;2023-08-01T07:20:47;20.00;87.50
13707;DHT22;6925;47.816;13.072;2023-08-01T07:23:14;20.00;87.50
13707;DHT22;6925;47.816;13.072;2023-08-01T07:25:41;20.00;86.70
13707;DHT22;6925;47.816;13.072;2023-08-01T07:28:08;20.00;87.50
13707;DHT22;6925;47.816;13.072;2023-08-01T07:30:35;20.10;87.50
13707;DHT22;6925;47.816;13.072;2023-08-01T07:33:02;20.10;86.60
13707;DHT22;6925;47.816;13.072;2023-08-01T07:35:29;20.00;87.60
13707;DHT22;6925;47.816;13.072;2023-08-01T07:37:58;20.10;88.10
13707;DHT22;6925;47.816;13.072;2023-08-01T07:40:25;20.10;88.00
13707;DHT22;6925;47.816;13.072;2023-08-01T07:42:52;20.10;88.70
13707;DHT22;6925;47.816;13.072;2023-08-01T07:45:19;20.10;88.20
13707;DHT22;6925;47.816;13.072;2023-08-01T07:47:45;20.10;88.30
13707;DHT22;6925;47.816;13.072;2023-08-01T07:50:12;20.10;87.90
13707;DHT22;6925;47.816;13.072;2023-08-01T07:52:39;20.10;89.00
13707;DHT22;6925;47.816;13.072;2023-08-01T07:55:08;20.10;89.10
13707;DHT22;6925;47.816;13.072;2023-08-01T07:57:35;20.10;89.40
13707;DHT22;6925;47.816;13.072;2023-08-01T08:00:02;20.10;88.80
13707;DHT22;6925;47.816;13.072;2023-08-01T08:02:29;20.10;89.80
13707;DHT22;6925;47.816;13.072;2023-08-01T08:04:56;20.20;90.00
13707;DHT22;6925;47.816;13.072;2023-08-01T08:07:23;20.20;90.20
13707;DHT22;6925;47.816;13.072;2023-08-01T08:09:50;20.20;90.00
13707;DHT22;6925;47.816;13.072;2023-08-01T08:12:18;20.30;90.10
13707;DHT22;6925;47.816;13.072;2023-08-01T08:14:45;20.30;90.00
13707;DHT22;6925;47.816;13.072;2023-08-01T08:17:12;20.30;90.00
13707;DHT22;6925;47.816;13.072;2023-08-01T08:19:39;20.30;89.90
13707;DHT22;6925;47.816;13.072;2023-08-01T08:22:06;20.30;90.00
13707;DHT22;6925;47.816;13.072;2023-08-01T08:24:33;20.30;90.00
13707;DHT22;6925;47.816;13.072;2023-08-01T08:27:00;20.20;89.90
13707;DHT22;6925;47.816;13.072;2023-08-01T08:29:29;20.20;90.00
13707;DHT22;6925;47.816;13.072;2023-08-01T08:31:57;20.20;90.00
13707;DHT22;6925;47.816;13.072;2023-08-01T08:34:23;20.10;90.00
13707;DHT22;6925;47.816;13.072;2023-08-01T08:36:51;20.10;90.20
13707;DHT22;6925;47.816;13.072;2023-08-01T08:39:18;20.10;90.10
13707;DHT22;6925;47.816;13.072;2023-08-01T08:41:45;20.00;90.30
13707;DHT22;6925;47.816;13.072;2023-08-01T08:44:16;20.00;90.00
13707;DHT22;6925;47.816;13.072;2023-08-01T08:46:52;19.90;90.30
13707;DHT22;6925;47.816;13.072;2023-08-01T08:49:20;19.90;90.40
13707;DHT22;6925;47.816;13.072;2023-08-01T08:51:47;20.00;90.50
13707;DHT22;6925;47.816;13.072;2023-08-01T08:54:16;20.00;90.50
13707;DHT22;6925;47.816;13.072;2023-08-01T08:56:43;20.00;90.80
13707;DHT22;6925;47.816;13.072;2023-08-01T08:59:10;20.00;90.20
13707;DHT22;6925;47.816;13.072;2023-08-01T09:01:38;19.90;90.40
13707;DHT22;6925;47.816;13.072;2023-08-01T09:04:08;19.90;90.70
13707;DHT22;6925;47.816;13.072;2023-08-01T09:06:40;19.80;90.70
13707;DHT22;6925;47.816;13.072;2023-08-01T09:09:10;19.80;90.40
13707;DHT22;6925;47.816;13.072;2023-08-01T09:11:41;19.80;90.40
13707;DHT22;6925;47.816;13.072;2023-08-01T09:14:09;19.70;90.50
13707;DHT22;6925;47.816;13.072;2023-08-01T09:16:36;19.70;90.70
13707;DHT22;6925;47.816;13.072;2023-08-01T09:19:07;19.70;90.50
13707;DHT22;6925;47.816;13.072;2023-08-01T09:21:36;19.70;90.60
13707;DHT22;6925;47.816;13.072;2023-08-01T09:24:11;19.60;90.70
13707;DHT22;6925;47.816;13.072;2023-08-01T09:26:38;19.50;91.20
13707;DHT22;6925;47.816;13.072;2023-08-01T09:29:05;19.50;91.30
13707;DHT22;6925;47.816;13.072;2023-08-01T09:31:34;19.40;91.40
13707;DHT22;6925;47.816;13.072;2023-08-01T09:34:02;19.30;90.90
13707;DHT22;6925;47.816;13.072;2023-08-01T09:36:32;19.30;91.10
13707;DHT22;6925;47.816;13.072;2023-08-01T09:39:00;19.30;91.60
13707;DHT22;6925;47.816;13.072;2023-08-01T09:41:28;19.30;91.70
13707;DHT22;6925;47.816;13.072;2023-08-01T09:43:56;19.40;92.10
13707;DHT22;6925;47.816;13.072;2023-08-01T09:46:23;19.40;91.60
13707;DHT22;6925;47.816;13.072;2023-08-01T09:48:51;19.50;91.30
13707;DHT22;6925;47.816;13.072;2023-08-01T09:51:18;19.50;91.90
13707;DHT22;6925;47.816;13.072;2023-08-01T09:53:49;19.50;91.80
13707;DHT22;6925;47.816;13.072;2023-08-01T09:56:20;19.50;92.10
13707;DHT22;6925;47.816;13.072;2023-08-01T09:58:48;19.60;92.00
13707;DHT22;6925;47.816;13.072;2023-08-01T10:01:16;19.60;92.00
13707;DHT22;6925;47.816;13.072;2023-08-01T10:03:45;19.70;91.60
13707;DHT22;6925;47.816;13.072;2023-08-01T10:06:17;19.70;91.70
13707;DHT22;6925;47.816;13.072;2023-08-01T10:08:45;19.70;91.50
13707;DHT22;6925;47.816;13.072;2023-08-01T10:11:15;19.70;92.00
13707;DHT22;6925;47.816;13.072;2023-08-01T10:13:42;19.80;91.50
13707;DHT22;6925;47.816;13.072;2023-08-01T10:16:10;19.70;91.20
13707;DHT22;6925;47.816;13.072;2023-08-01T10:18:38;19.70;91.70
13707;DHT22;6925;47.816;13.072;2023-08-01T10:21:06;19.70;91.80
13707;DHT22;6925;47.816;13.072;2023-08-01T10:23:34;19.70;92.00
13707;DHT22;6925;47.816;13.072;2023-08-01T10:26:05;19.70;91.90
13707;DHT22;6925;47.816;13.072;2023-08-01T10:28:36;19.70;92.10
13707;DHT22;6925;47.816;13.072;2023-08-01T10:31:08;19.80;92.40
13707;DHT22;6925;47.816;13.072;2023-08-01T10:33:36;19.80;92.20
13707;DHT22;6925;47.816;13.072;2023-08-01T10:36:13;19.80;92.30
13707;DHT22;6925;47.816;13.072;2023-08-01T10:38:50;19.80;91.30
13707;DHT22;6925;47.816;13.072;2023-08-01T10:41:24;19.60;91.30
13707;DHT22;6925;47.816;13.072;2023-08-01T10:44:04;19.50;91.80
13707;DHT22;6925;47.816;13.072;2023-08-01T10:46:44;19.50;92.60
13707;DHT22;6925;47.816;13.072;2023-08-01T10:49:11;19.60;92.20
13707;DHT22;6925;47.816;13.072;2023-08-01T10:51:38;19.60;92.10
13707;DHT22;6925;47.816;13.072;2023-08-01T10:54:05;19.60;92.20
13707;DHT22;6925;47.816;13.072;2023-08-01T10:56:32;19.60;92.70
13707;DHT22;6925;47.816;13.072;2023-08-01T10:59:00;19.60;92.40
13707;DHT22;6925;47.816;13.072;2023-08-01T11:01:43;19.60;92.00
13707;DHT22;6925;47.816;13.072;2023-08-01T11:04:14;19.60;92.40
13707;DHT22;6925;47.816;13.072;2023-08-01T11:06:45;19.60;92.40
13707;DHT22;6925;47.816;13.072;2023-08-01T11:09:17;19.70;92.50
13707;DHT22;6925;47.816;13.072;2023-08-01T11:11:45;19.70;92.30
13707;DHT22;6925;47.816;13.072;2023-08-01T11:14:15;19.70;92.40
13707;DHT22;6925;47.816;13.072;2023-08-01T11:16:43;19.70;92.50
13707;DHT22;6925;47.816;13.072;2023-08-01T11:19:20;19.70;92.10
13707;DHT22;6925;47.816;13.072;2023-08-01T11:21:47;19.70;92.50
13707;DHT22;6925;47.816;13.072;2023-08-01T11:24:15;19.60;91.80
13707;DHT22;6925;47.816;13.072;2023-08-01T11:26:43;19.60;92.30
13707;DHT22;6925;47.816;13.072;2023-08-01T11:29:11;19.60;92.80
13707;DHT22;6925;47.816;13.072;2023-08-01T11:31:40;19.60;92.60
13707;DHT22;6925;47.816;13.072;2023-08-01T11:34:08;19.60;92.90
13707;DHT22;6925;47.816;13.072;2023-08-01T11:36:36;19.70;92.50
13707;DHT22;6925;47.816;13.072;2023-08-01T11:39:04;19.70;92.60
13707;DHT22;6925;47.816;13.072;2023-08-01T11:41:31;19.70;92.40
13707;DHT22;6925;47.816;13.072;2023-08-01T11:44:02;19.70;92.50
13707;DHT22;6925;47.816;13.072;2023-08-01T11:46:32;19.70;92.50
13707;DHT22;6925;47.816;13.072;2023-08-01T11:49:02;19.70;92.40
13707;DHT22;6925;47.816;13.072;2023-08-01T11:51:29;19.60;92.70
13707;DHT22;6925;47.816;13.072;2023-08-01T11:54:00;19.60;93.00
13707;DHT22;6925;47.816;13.072;2023-08-01T11:56:27;19.60;92.90
13707;DHT22;6925;47.816;13.072;2023-08-01T11:58:55;19.60;93.30
13707;DHT22;6925;47.816;13.072;2023-08-01T12:01:22;19.60;93.70
13707;DHT22;6925;47.816;13.072;2023-08-01T12:03:50;19.60;94.00
13707;DHT22;6925;47.816;13.072;2023-08-01T12:06:20;19.60;93.70
13707;DHT22;6925;47.816;13.072;2023-08-01T12:08:48;19.60;93.70
13707;DHT22;6925;47.816;13.072;2023-08-01T12:11:22;19.60;93.70
13707;DHT22;6925;47.816;13.072;2023-08-01T12:14:01;19.50;93.00
13707;DHT22;6925;47.816;13.072;2023-08-01T12:16:28;19.40;93.00
13707;DHT22;6925;47.816;13.072;2023-08-01T12:18:55;19.30;93.70
13707;DHT22;6925;47.816;13.072;2023-08-01T12:21:24;19.20;93.40
13707;DHT22;6925;47.816;13.072;2023-08-01T12:23:51;19.20;93.40
13707;DHT22;6925;47.816;13.072;2023-08-01T12:26:18;19.20;93.80
13707;DHT22;6925;47.816;13.072;2023-08-01T12:28:45;19.20;93.50
13707;DHT22;6925;47.816;13.072;2023-08-01T12:31:16;19.30;93.60
13707;DHT22;6925;47.816;13.072;2023-08-01T12:33:44;19.30;93.60
13707;DHT22;6925;47.816;13.072;2023-08-01T12:36:11;19.30;93.50
13707;DHT22;6925;47.816;13.072;2023-08-01T12:38:39;19.40;93.80
13707;DHT22;6925;47.816;13.072;2023-08-01T12:41:06;19.40;94.00
13707;DHT22;6925;47.816;13.072;2023-08-01T12:43:34;19.50;94.50
13707;DHT22;6925;47.816;13.072;2023-08-01T12:46:01;19.50;94.20
13707;DHT22;6925;47.816;13.072;2023-08-01T12:48:28;19.60;93.70
13707;DHT22;6925;47.816;13.072;2023-08-01T12:50:55;19.50;93.50
13707;DHT22;6925;47.816;13.072;2023-08-01T12:53:23;19.50;93.80
13707;DHT22;6925;47.816;13.072;2023-08-01T12:55:52;19.40;93.70
13707;DHT22;6925;47.816;13.072;2023-08-01T12:58:19;19.50;93.80
13707;DHT22;6925;47.816;13.072;2023-08-01T13:00:46;19.50;93.70
13707;DHT22;6925;47.816;13.072;2023-08-01T13:03:13;19.50;94.00
13707;DHT22;6925;47.816;13.072;2023-08-01T13:05:42;19.60;94.40
13707;DHT22;6925;47.816;13.072;2023-08-01T13:08:09;19.60;94.30
13707;DHT22;6925;47.816;13.072;2023-08-01T13:10:37;19.60;93.60
13707;DHT22;6925;47.816;13.072;2023-08-01T13:13:06;19.60;93.70
13707;DHT22;6925;47.816;13.072;2023-08-01T13:15:33;19.60;94.30
13707;DHT22;6925;47.816;13.072;2023-08-01T13:18:00;19.70;94.70
13707;DHT22;6925;47.816;13.072;2023-08-01T13:20:27;19.80;95.00
13707;DHT22;6925;47.816;13.072;2023-08-01T13:22:54;20.00;94.70
13707;DHT22;6925;47.816;13.072;2023-08-01T13:25:21;20.10;94.20
13707;DHT22;6925;47.816;13.072;2023-08-01T13:27:48;20.10;93.70
13707;DHT22;6925;47.816;13.072;2023-08-01T13:30:16;20.00;93.60
13707;DHT22;6925;47.816;13.072;2023-08-01T13:32:44;20.10;93.30
13707;DHT22;6925;47.816;13.072;2023-08-01T13:35:11;20.10;94.00
13707;DHT22;6925;47.816;13.072;2023-08-01T13:37:38;20.10;93.50
13707;DHT22;6925;47.816;13.072;2023-08-01T13:40:06;20.10;93.30
13707;DHT22;6925;47.816;13.072;2023-08-01T13:42:33;20.10;93.60
13707;DHT22;6925;47.816;13.072;2023-08-01T13:45:00;20.20;93.60
13707;DHT22;6925;47.816;13.072;2023-08-01T13:47:28;20.20;93.60
13707;DHT22;6925;47.816;13.072;2023-08-01T13:49:55;20.20;93.50
13707;DHT22;6925;47.816;13.072;2023-08-01T13:52:22;20.10;93.00
13707;DHT22;6925;47.816;13.072;2023-08-01T13:54:49;20.10;93.40
13707;DHT22;6925;47.816;13.072;2023-08-01T13:57:16;20.10;93.10
13707;DHT22;6925;47.816;13.072;2023-08-01T13:59:43;20.10;93.60
13707;DHT22;6925;47.816;13.072;2023-08-01T14:02:10;20.00;93.30
13707;DHT22;6925;47.816;13.072;2023-08-01T14:04:38;20.00;93.50
13707;DHT22;6925;47.816;13.072;2023-08-01T14:07:05;20.00;93.70
13707;DHT22;6925;47.816;13.072;2023-08-01T14:09:32;20.00;93.30
13707;DHT22;6925;47.816;13.072;2023-08-01T14:12:01;20.00;93.80
13707;DHT22;6925;47.816;13.072;2023-08-01T14:14:29;20.00;93.80
13707;DHT22;6925;47.816;13.072;2023-08-01T14:16:55;20.00;93.60
13707;DHT22;6925;47.816;13.072;2023-08-01T14:19:22;19.90;93.30
13707;DHT22;6925;47.816;13.072;2023-08-01T14:21:56;19.90;93.70
13707;DHT22;6925;47.816;13.072;2023-08-01T14:24:24;19.90;93.90
13707;DHT22;6925;47.816;13.072;2023-08-01T14:26:51;19.90;93.60
13707;DHT22;6925;47.816;13.072;2023-08-01T14:29:18;19.80;93.70
13707;DHT22;6925;47.816;13.072;2023-08-01T14:31:48;19.80;93.70
13707;DHT22;6925;47.816;13.072;2023-08-01T14:34:15;19.90;93.40
13707;DHT22;6925;47.816;13.072;2023-08-01T14:36:42;19.80;93.10
13707;DHT22;6925;47.816;13.072;2023-08-01T14:39:11;19.80;93.50
13707;DHT22;6925;47.816;13.072;2023-08-01T14:41:38;19.80;93.20
13707;DHT22;6925;47.816;13.072;2023-08-01T14:44:04;19.70;92.60
13707;DHT22;6925;47.816;13.072;2023-08-01T14:46:32;19.70;92.90
13707;DHT22;6925;47.816;13.072;2023-08-01T14:49:00;19.70;93.30
13707;DHT22;6925;47.816;13.072;2023-08-01T14:51:27;19.80;93.60
13707;DHT22;6925;47.816;13.072;2023-08-01T14:53:54;19.80;93.60
13707;DHT22;6925;47.816;13.072;2023-08-01T14:56:22;19.90;93.80
13707;DHT22;6925;47.816;13.072;2023-08-01T14:58:49;19.90;93.80
13707;DHT22;6925;47.816;13.072;2023-08-01T15:01:16;19.90;94.30
13707;DHT22;6925;47.816;13.072;2023-08-01T15:03:44;20.10;94.70
13707;DHT22;6925;47.816;13.072;2023-08-01T15:06:11;20.20;94.40
13707;DHT22;6925;47.816;13.072;2023-08-01T15:08:38;20.30;94.20
13707;DHT22;6925;47.816;13.072;2023-08-01T15:11:06;20.40;93.90
13707;DHT22;6925;47.816;13.072;2023-08-01T15:13:35;20.40;93.50
13707;DHT22;6925;47.816;13.072;2023-08-01T15:16:02;20.40;93.90
13707;DHT22;6925;47.816;13.072;2023-08-01T15:18:29;20.50;94.00
13707;DHT22;6925;47.816;13.072;2023-08-01T15:20:56;20.60;94.00
13707;DHT22;6925;47.816;13.072;2023-08-01T15:23:23;20.60;93.00
13707;DHT22;6925;47.816;13.072;2023-08-01T15:25:54;20.60;92.70
13707;DHT22;6925;47.816;13.072;2023-08-01T15:28:22;20.60;92.50
13707;DHT22;6925;47.816;13.072;2023-08-01T15:31:00;20.60;92.90
13707;DHT22;6925;47.816;13.072;2023-08-01T15:33:27;20.70;93.00
13707;DHT22;6925;47.816;13.072;2023-08-01T15:35:55;20.70;92.80
13707;DHT22;6925;47.816;13.072;2023-08-01T15:38:25;20.70;93.20
13707;DHT22;6925;47.816;13.072;2023-08-01T15:40:52;20.70;93.40